Time;durP1;ratioP1;P1;durP2;ratioP2;P2;SDS_P1;SDS_P2;PMS_P1;PMS_P2;Temp;Humidity;BMP_temperature;BMP_pressure;BME280_temperature;BME280_humidity;BME280_pressure;Samples;Min_cycle;Max_cycle;Signal;HPM_P1;HPM_P2
2023/04/25 00:01:18;;;;;;;5.30;2.17;;;9.40;99.90;;;;;;5076679;28;20463;-85
2023/04/25 00:03:44;;;;;;;5.33;1.97;;;9.40;99.90;;;;;;5066697;28;21048;-86
2023/04/25 00:06:10;;;;;;;2.47;1.73;;;9.40;99.90;;;;;;5054581;28;20514;-85
2023/04/25 00:08:35;;;;;;;5.07;2.10;;;9.50;99.90;;;;;;5054625;28;20185;-85
2023/04/25 00:11:01;;;;;;;5.60;2.53;;;9.40;99.90;;;;;;5042927;28;20176;-83
2023/04/25 00:13:27;;;;;;;6.03;2.70;;;9.40;99.90;;;;;;5023738;28;20176;-84
2023/04/25 00:15:53;;;;;;;3.87;2.40;;;9.50;99.90;;;;;;5039672;28;20643;-86
2023/04/25 00:18:19;;;;;;;5.93;3.30;;;9.60;99.90;;;;;;5039334;28;20170;-85
2023/04/25 00:20:46;;;;;;;3.63;2.50;;;9.50;99.90;;;;;;5034820;28;20468;-84
2023/04/25 00:23:17;;;;;;;4.33;2.53;;;9.40;99.90;;;;;;5037355;28;20801;-82
2023/04/25 00:25:44;;;;;;;4.40;1.83;;;9.40;99.90;;;;;;5034455;28;20420;-83
2023/04/25 00:28:10;;;;;;;5.00;2.07;;;9.40;99.90;;;;;;5039779;28;20423;-81
2023/04/25 00:30:36;;;;;;;3.30;1.83;;;9.40;99.90;;;;;;5033245;28;20787;-83
2023/04/25 00:33:01;;;;;;;4.27;2.00;;;9.40;99.90;;;;;;5032901;28;20419;-81
2023/04/25 00:35:27;;;;;;;5.20;2.40;;;9.40;99.90;;;;;;5034501;28;20212;-83
2023/04/25 00:37:53;;;;;;;5.30;2.63;;;9.50;99.90;;;;;;5033160;28;20610;-83
2023/04/25 00:40:19;;;;;;;10.83;2.50;;;9.50;99.90;;;;;;5034873;28;20189;-84
2023/04/25 00:42:46;;;;;;;12.40;2.60;;;9.40;99.90;;;;;;5033355;28;20417;-85
2023/04/25 00:45:16;;;;;;;5.23;2.43;;;9.40;99.90;;;;;;5050510;28;20176;-86
2023/04/25 00:47:42;;;;;;;7.20;1.70;;;9.30;99.90;;;;;;5053240;28;20438;-85
2023/04/25 00:50:08;;;;;;;9.37;2.90;;;9.30;99.90;;;;;;5053641;28;21014;-87
2023/04/25 00:52:34;;;;;;;9.10;2.87;;;9.30;99.90;;;;;;5053309;28;20184;-85
2023/04/25 00:55:00;;;;;;;12.30;3.43;;;9.30;99.90;;;;;;5053526;28;20498;-86
2023/04/25 00:57:25;;;;;;;9.33;1.90;;;9.30;99.90;;;;;;5053795;28;20173;-85
2023/04/25 00:59:52;;;;;;;6.43;2.57;;;9.30;99.90;;;;;;5052779;28;20415;-86
2023/04/25 01:02:20;;;;;;;14.57;3.30;;;9.20;99.90;;;;;;5053206;28;20212;-85
2023/04/25 01:04:47;;;;;;;12.47;3.30;;;9.10;99.90;;;;;;5051916;28;20455;-85
2023/04/25 01:07:13;;;;;;;10.50;2.37;;;9.20;99.90;;;;;;5052792;28;20425;-85
2023/04/25 01:09:40;;;;;;;13.70;2.50;;;9.20;99.90;;;;;;5053329;28;20778;-85
2023/04/25 01:12:08;;;;;;;11.13;2.20;;;9.10;99.90;;;;;;5036388;28;20426;-87
2023/04/25 01:14:35;;;;;;;10.23;2.53;;;9.20;99.90;;;;;;5036774;28;20426;-85
2023/04/25 01:17:05;;;;;;;10.53;2.80;;;9.20;99.90;;;;;;5053047;28;20860;-86
2023/04/25 01:19:30;;;;;;;7.60;2.90;;;9.10;99.90;;;;;;5036788;28;20742;-87
2023/04/25 01:21:56;;;;;;;19.33;3.70;;;9.00;99.90;;;;;;5052464;28;20478;-84
2023/04/25 01:24:22;;;;;;;9.40;2.50;;;8.90;99.90;;;;;;5052711;28;20169;-88
2023/04/25 01:26:49;;;;;;;9.33;2.87;;;9.00;99.90;;;;;;5053167;28;20185;-87
2023/04/25 01:29:20;;;;;;;7.07;2.00;;;8.90;99.90;;;;;;5057316;28;20226;-92
2023/04/25 01:31:46;;;;;;;10.50;2.60;;;9.00;99.90;;;;;;5056499;28;20418;-86
2023/04/25 01:34:12;;;;;;;13.37;3.27;;;9.10;99.90;;;;;;5000511;28;20976;-87
2023/04/25 01:36:39;;;;;;;10.80;2.67;;;9.10;99.90;;;;;;5034052;28;20447;-83
2023/04/25 01:39:04;;;;;;;9.27;2.70;;;9.00;99.90;;;;;;5034358;28;20411;-86
2023/04/25 01:41:30;;;;;;;11.03;3.23;;;9.00;99.90;;;;;;5034225;28;20836;-86
2023/04/25 01:43:56;;;;;;;9.10;2.90;;;9.00;99.90;;;;;;5034431;28;20176;-86
2023/04/25 01:46:22;;;;;;;15.73;3.30;;;8.90;99.90;;;;;;5032645;28;20814;-85
2023/04/25 01:48:50;;;;;;;9.43;1.47;;;9.00;99.90;;;;;;5032609;28;20272;-87
2023/04/25 01:51:16;;;;;;;17.93;3.87;;;9.00;99.90;;;;;;5032602;28;20454;-84
2023/04/25 01:53:42;;;;;;;17.50;3.63;;;9.00;99.90;;;;;;5032598;28;20465;-88
2023/04/25 01:56:08;;;;;;;12.17;4.30;;;9.00;99.90;;;;;;5033050;28;20190;-87
2023/04/25 01:58:33;;;;;;;14.20;3.37;;;9.00;99.90;;;;;;5032648;28;20427;-82
2023/04/25 02:00:59;;;;;;;10.13;3.53;;;8.90;99.90;;;;;;5032424;28;20223;-84
2023/04/25 02:03:24;;;;;;;7.50;1.87;;;8.80;90.30;;;;;;5041343;28;20221;-85
2023/04/25 02:05:50;;;;;;;8.73;2.83;;;8.70;97.60;;;;;;5055885;28;20177;-88
2023/04/25 02:08:17;;;;;;;16.10;3.37;;;8.80;97.40;;;;;;5055749;28;20214;-86
2023/04/25 02:10:43;;;;;;;9.00;2.57;;;8.70;28.40;;;;;;5055691;28;20190;-83
2023/04/25 02:13:08;;;;;;;16.30;2.67;;;8.60;30.00;;;;;;5073540;28;20414;-84
2023/04/25 02:15:34;;;;;;;11.07;2.70;;;8.60;19.40;;;;;;5055431;28;20420;-82
2023/04/25 02:18:00;;;;;;;17.40;3.97;;;8.50;1.00;;;;;;5073254;28;20616;-83
2023/04/25 02:20:26;;;;;;;14.30;3.27;;;8.50;1.00;;;;;;5054614;28;20174;-85
2023/04/25 02:22:52;;;;;;;12.40;3.20;;;8.50;1.00;;;;;;5054818;28;20578;-82
2023/04/25 02:25:19;;;;;;;9.27;2.10;;;8.50;1.00;;;;;;5073572;28;20421;-85
2023/04/25 02:27:46;;;;;;;9.47;2.17;;;8.60;1.00;;;;;;5089031;28;20554;-83
2023/04/25 02:30:12;;;;;;;8.70;2.73;;;8.60;1.00;;;;;;5073045;28;20778;-83
2023/04/25 02:32:38;;;;;;;7.63;2.23;;;8.70;1.00;;;;;;5055139;28;20507;-85
2023/04/25 02:35:07;;;;;;;20.20;3.87;;;8.60;1.00;;;;;;5020869;28;20881;-83
2023/04/25 02:37:34;;;;;;;15.03;3.57;;;8.60;1.00;;;;;;5074842;28;20489;-81
2023/04/25 02:40:00;;;;;;;11.33;3.40;;;8.60;1.00;;;;;;5075092;28;20481;-82
2023/04/25 02:42:26;;;;;;;10.00;2.50;;;8.60;1.00;;;;;;5074757;28;20555;-85
2023/04/25 02:44:52;;;;;;;13.27;3.27;;;8.60;1.00;;;;;;5093111;28;20252;-82
2023/04/25 02:47:17;;;;;;;9.80;2.00;;;8.60;1.00;;;;;;5075308;28;20943;-83
2023/04/25 02:49:43;;;;;;;8.43;2.63;;;8.50;1.00;;;;;;5092950;28;20181;-82
2023/04/25 02:52:11;;;;;;;16.83;3.27;;;8.40;1.00;;;;;;5092646;28;20169;-83
2023/04/25 02:54:38;;;;;;;14.07;2.67;;;8.40;1.00;;;;;;5074772;28;20548;-82
2023/04/25 02:57:06;;;;;;;12.30;3.73;;;8.40;1.00;;;;;;5092972;28;20937;-83
2023/04/25 02:59:32;;;;;;;11.30;2.20;;;8.50;1.00;;;;;;5074989;28;20478;-82
2023/04/25 03:01:58;;;;;;;11.83;2.63;;;8.50;1.00;;;;;;5092863;28;20976;-83
2023/04/25 03:04:23;;;;;;;7.83;2.53;;;8.40;1.00;;;;;;5074680;28;20309;-82
2023/04/25 03:06:52;;;;;;;10.90;3.57;;;8.40;1.00;;;;;;5074513;28;20179;-82
2023/04/25 03:09:19;;;;;;;6.73;1.93;;;8.40;1.00;;;;;;5092880;28;20185;-82
2023/04/25 03:11:45;;;;;;;12.33;2.80;;;8.30;1.00;;;;;;5074669;28;20422;-82
2023/04/25 03:14:11;;;;;;;12.83;2.60;;;8.30;1.00;;;;;;5074792;28;20824;-82
2023/04/25 03:16:37;;;;;;;15.20;3.37;;;8.30;1.00;;;;;;5074574;28;20432;-83
2023/04/25 03:19:03;;;;;;;10.43;2.70;;;8.20;99.90;;;;;;5074333;28;20411;-83
2023/04/25 03:21:31;;;;;;;11.20;3.07;;;8.20;99.90;;;;;;5092281;28;20694;-82
2023/04/25 03:23:57;;;;;;;12.67;2.80;;;8.20;99.90;;;;;;5092810;28;20474;-84
2023/04/25 03:26:22;;;;;;;13.23;2.13;;;8.20;99.90;;;;;;5092731;28;20415;-82
2023/04/25 03:28:48;;;;;;;6.70;3.40;;;8.20;99.90;;;;;;5074503;28;20175;-83
2023/04/25 03:31:13;;;;;;;10.80;2.43;;;8.20;99.90;;;;;;5092657;28;20165;-82
2023/04/25 03:33:39;;;;;;;17.33;4.47;;;8.10;99.90;;;;;;5094666;28;20650;-84
2023/04/25 03:36:05;;;;;;;13.17;2.30;;;8.10;99.90;;;;;;5096029;28;20178;-83
2023/04/25 03:38:31;;;;;;;8.43;1.83;;;8.00;1.00;;;;;;5096497;28;20185;-82
2023/04/25 03:40:56;;;;;;;13.13;2.90;;;8.10;1.00;;;;;;5096448;28;20476;-83
2023/04/25 03:43:22;;;;;;;7.80;2.90;;;8.10;1.00;;;;;;5096491;28;20265;-82
2023/04/25 03:45:47;;;;;;;12.83;2.53;;;8.00;1.00;;;;;;5096440;28;20185;-82
2023/04/25 03:48:13;;;;;;;11.43;3.40;;;8.00;1.00;;;;;;5096385;28;20253;-82
2023/04/25 03:50:38;;;;;;;17.67;4.50;;;8.00;99.90;;;;;;5096406;28;20175;-82
2023/04/25 03:53:04;;;;;;;14.60;2.50;;;8.00;99.90;;;;;;5095897;28;20281;-83
2023/04/25 03:55:30;;;;;;;9.27;2.00;;;7.90;99.90;;;;;;5077970;28;20173;-82
2023/04/25 03:58:00;;;;;;;15.20;3.30;;;7.80;99.90;;;;;;5096222;28;20185;-83
2023/04/25 04:00:26;;;;;;;12.47;2.27;;;7.70;99.90;;;;;;5095987;28;20475;-82
2023/04/25 04:02:51;;;;;;;11.87;2.70;;;7.70;99.90;;;;;;5096049;28;20433;-83
2023/04/25 04:05:17;;;;;;;7.03;2.53;;;7.70;99.90;;;;;;5095672;28;20877;-82
2023/04/25 04:07:42;;;;;;;10.80;2.67;;;7.70;99.90;;;;;;5095771;28;20181;-82
2023/04/25 04:10:09;;;;;;;10.07;1.70;;;7.70;99.90;;;;;;5095986;28;20651;-81
2023/04/25 04:12:35;;;;;;;13.60;2.40;;;7.80;99.90;;;;;;5095787;28;20653;-82
2023/04/25 04:15:04;;;;;;;12.10;2.40;;;7.70;90.90;;;;;;5095874;28;20418;-84
2023/04/25 04:17:30;;;;;;;11.87;4.07;;;7.70;1.00;;;;;;5077537;28;20215;-82
2023/04/25 04:19:56;;;;;;;7.30;1.80;;;7.70;99.90;;;;;;5077170;28;20917;-82
2023/04/25 04:22:22;;;;;;;8.10;2.30;;;7.60;99.90;;;;;;5095267;28;20463;-81
2023/04/25 04:24:54;;;;;;;14.02;2.58;;;7.80;1.00;;;;;;5094781;28;20421;-82
2023/04/25 04:27:22;;;;;;;11.90;2.73;;;7.90;85.80;;;;;;5095624;28;20219;-82
2023/04/25 04:29:48;;;;;;;9.67;2.30;;;8.00;99.90;;;;;;5095526;28;20412;-82
2023/04/25 04:32:15;;;;;;;8.77;1.40;;;8.10;21.40;;;;;;5035716;28;20445;-82
2023/04/25 04:34:41;;;;;;;7.67;1.83;;;8.00;99.90;;;;;;5077067;28;20679;-83
2023/04/25 04:37:07;;;;;;;10.47;2.60;;;7.90;1.00;;;;;;5076906;28;20450;-82
2023/04/25 04:39:34;;;;;;;3.47;1.23;;;7.80;35.40;;;;;;5095253;28;20419;-82
2023/04/25 04:42:01;;;;;;;6.17;1.20;;;7.80;1.00;;;;;;5077093;28;20990;-83
2023/04/25 04:44:28;;;;;;;4.97;1.67;;;7.80;1.00;;;;;;5076773;28;20420;-83
2023/04/25 04:46:54;;;;;;;8.93;1.70;;;7.70;99.90;;;;;;5095206;28;20410;-82
2023/04/25 04:49:20;;;;;;;10.20;1.57;;;7.60;99.90;;;;;;5076830;28;21015;-83
2023/04/25 04:51:46;;;;;;;7.03;1.43;;;7.60;99.90;;;;;;5060223;28;20313;-83
2023/04/25 04:54:12;;;;;;;13.53;1.97;;;7.60;99.90;;;;;;5076883;28;20411;-82
2023/04/25 04:56:38;;;;;;;7.70;2.37;;;7.70;99.90;;;;;;5076985;28;20420;-82
2023/04/25 04:59:03;;;;;;;9.80;2.10;;;7.60;99.90;;;;;;5076835;28;20216;-83
2023/04/25 05:01:30;;;;;;;5.50;1.57;;;7.70;1.00;;;;;;5076322;28;20213;-85
2023/04/25 05:03:59;;;;;;;7.17;1.73;;;7.70;1.00;;;;;;5060061;28;20257;-83
2023/04/25 05:06:26;;;;;;;9.53;2.77;;;7.80;1.00;;;;;;5076476;28;20511;-83
2023/04/25 05:08:52;;;;;;;9.57;2.10;;;7.80;1.00;;;;;;5076718;28;20782;-82
2023/04/25 05:11:18;;;;;;;4.57;1.50;;;7.90;1.00;;;;;;5076644;28;20427;-82
2023/04/25 05:13:44;;;;;;;8.27;1.73;;;8.00;1.00;;;;;;5076368;28;20557;-82
2023/04/25 05:16:09;;;;;;;8.73;2.07;;;8.00;99.90;;;;;;5094620;28;20502;-84
2023/04/25 05:18:36;;;;;;;7.50;2.30;;;8.00;16.90;;;;;;5076512;28;20572;-82
2023/04/25 05:21:01;;;;;;;16.40;3.40;;;8.00;99.90;;;;;;5094204;28;20212;-83
2023/04/25 05:23:27;;;;;;;13.87;2.77;;;8.20;99.90;;;;;;5076383;28;20920;-83
2023/04/25 05:25:53;;;;;;;12.90;2.43;;;8.40;99.90;;;;;;5094558;28;20243;-83
2023/04/25 05:28:18;;;;;;;8.47;3.70;;;8.40;1.00;;;;;;5076147;28;20854;-82
2023/04/25 05:30:44;;;;;;;7.73;2.40;;;8.40;1.00;;;;;;5076097;28;20183;-82
2023/04/25 05:33:10;;;;;;;10.67;3.30;;;8.50;1.00;;;;;;5093020;28;20181;-83
2023/04/25 05:35:35;;;;;;;9.33;2.50;;;8.30;16.30;;;;;;5092166;28;20646;-82
2023/04/25 05:38:00;;;;;;;12.13;1.20;;;8.30;46.40;;;;;;5074970;28;20166;-82
2023/04/25 05:40:27;;;;;;;8.93;2.00;;;8.30;99.90;;;;;;5074813;28;20173;-82
2023/04/25 05:42:52;;;;;;;8.67;1.93;;;8.30;1.00;;;;;;5094210;28;20168;-82
2023/04/25 05:45:18;;;;;;;18.67;2.50;;;8.20;1.00;;;;;;5094050;28;20529;-83
2023/04/25 05:47:43;;;;;;;4.10;1.50;;;8.00;1.00;;;;;;5094036;28;20214;-83
2023/04/25 05:50:09;;;;;;;9.10;1.53;;;7.80;1.00;;;;;;5093910;28;20167;-82
2023/04/25 05:52:35;;;;;;;7.20;1.93;;;7.80;1.00;;;;;;5093527;28;20218;-82
2023/04/25 05:55:00;;;;;;;5.63;0.80;;;7.80;1.00;;;;;;5093646;28;20518;-82
2023/04/25 05:57:27;;;;;;;7.77;1.37;;;7.80;99.90;;;;;;5075191;28;20230;-82
2023/04/25 05:59:53;;;;;;;7.50;1.80;;;7.90;99.90;;;;;;5073465;28;20222;-81
2023/04/25 06:02:20;;;;;;;8.47;1.17;;;8.00;99.90;;;;;;5093738;28;20971;-82
2023/04/25 06:04:46;;;;;;;4.90;1.93;;;8.10;99.90;;;;;;5058838;28;20478;-83
2023/04/25 06:07:12;;;;;;;10.43;2.10;;;8.20;99.90;;;;;;5075133;28;20454;-82
2023/04/25 06:09:39;;;;;;;8.27;3.00;;;8.30;99.90;;;;;;5075655;28;20803;-82
2023/04/25 06:12:05;;;;;;;8.03;2.17;;;8.40;99.90;;;;;;5075380;28;20427;-84
2023/04/25 06:14:31;;;;;;;4.50;1.80;;;8.40;1.00;;;;;;5075284;28;20499;-82
2023/04/25 06:16:57;;;;;;;10.57;2.20;;;8.40;99.90;;;;;;5093200;28;20466;-82
2023/04/25 06:19:25;;;;;;;4.87;0.97;;;8.50;99.90;;;;;;5072843;28;20274;-82
2023/04/25 06:21:50;;;;;;;10.07;1.70;;;8.50;1.00;;;;;;5074871;28;21071;-80
2023/04/25 06:24:16;;;;;;;9.03;2.23;;;8.60;1.00;;;;;;5036554;28;20444;-82
2023/04/25 06:26:42;;;;;;;8.17;1.10;;;8.60;99.90;;;;;;5090664;28;20172;-83
2023/04/25 06:29:10;;;;;;;5.17;0.90;;;8.60;1.00;;;;;;5074584;28;20264;-82
2023/04/25 06:31:35;;;;;;;4.00;0.63;;;8.60;1.00;;;;;;5074335;28;20763;-81
2023/04/25 06:34:02;;;;;;;7.13;1.87;;;8.70;1.00;;;;;;5071323;28;20441;-81
2023/04/25 06:36:27;;;;;;;5.13;1.90;;;8.90;99.90;;;;;;5064568;28;20210;-82
2023/04/25 06:38:54;;;;;;;6.47;1.20;;;9.00;1.00;;;;;;5093124;28;20444;-81
2023/04/25 06:41:19;;;;;;;6.73;1.37;;;9.00;1.00;;;;;;5093315;28;20201;-81
2023/04/25 06:43:45;;;;;;;7.07;1.30;;;9.10;1.00;;;;;;5093125;28;20751;-84
2023/04/25 06:46:11;;;;;;;6.53;1.60;;;9.20;94.70;;;;;;5093075;28;20174;-82
2023/04/25 06:48:36;;;;;;;8.53;1.50;;;9.10;99.90;;;;;;5093931;28;20220;-83
2023/04/25 06:51:02;;;;;;;7.70;1.53;;;8.90;99.90;;;;;;5093341;28;20535;-82
2023/04/25 06:53:27;;;;;;;7.70;1.70;;;8.70;99.90;;;;;;5093063;28;20183;-81
2023/04/25 06:55:53;;;;;;;6.27;1.23;;;8.70;99.90;;;;;;5092987;28;20171;-83
2023/04/25 06:58:22;;;;;;;9.63;3.60;;;8.60;99.90;;;;;;5093035;28;20189;-82
2023/04/25 07:00:47;;;;;;;9.00;1.40;;;8.60;1.00;;;;;;5092771;28;20197;-82
2023/04/25 07:03:13;;;;;;;6.90;1.90;;;8.60;1.00;;;;;;5074541;28;20438;-83
2023/04/25 07:05:38;;;;;;;10.67;2.23;;;8.70;99.90;;;;;;5092512;28;20551;-81
2023/04/25 07:08:04;;;;;;;10.00;2.10;;;8.80;99.90;;;;;;5077641;28;20212;-81
2023/04/25 07:10:30;;;;;;;4.47;1.50;;;9.10;99.90;;;;;;5097063;28;20201;-81
2023/04/25 07:12:55;;;;;;;7.93;1.20;;;9.30;99.90;;;;;;5096884;28;20461;-83
2023/04/25 07:15:21;;;;;;;5.97;2.00;;;9.40;1.00;;;;;;5097021;28;20245;-83
2023/04/25 07:17:46;;;;;;;2.37;0.80;;;9.40;1.00;;;;;;5096993;28;20564;-86
2023/04/25 07:20:12;;;;;;;3.20;1.00;;;9.70;1.00;;;;;;5096925;28;20167;-87
2023/04/25 07:22:37;;;;;;;9.13;1.70;;;9.90;99.90;;;;;;5078387;28;20272;-82
2023/04/25 07:25:04;;;;;;;7.43;1.07;;;10.20;27.60;;;;;;5096797;28;20188;-86
2023/04/25 07:27:30;;;;;;;6.37;1.07;;;10.10;63.70;;;;;;5039667;28;20227;-85
2023/04/25 07:30:01;;;;;;;7.93;1.90;;;10.00;1.00;;;;;;5096836;28;20412;-85
2023/04/25 07:32:28;;;;;;;7.90;1.63;;;10.10;99.90;;;;;;5078217;28;20187;-86
2023/04/25 07:34:54;;;;;;;5.93;0.87;;;10.20;99.90;;;;;;5078425;28;20947;-83
2023/04/25 07:37:20;;;;;;;10.47;0.90;;;10.30;86.00;;;;;;5096288;28;20416;-82
2023/04/25 07:39:46;;;;;;;6.03;0.67;;;10.60;99.90;;;;;;5096641;28;20925;-84
2023/04/25 07:42:15;;;;;;;6.83;1.30;;;10.70;1.00;;;;;;5078306;28;20573;-84
2023/04/25 07:44:44;;;;;;;9.10;0.93;;;10.90;1.00;;;;;;5077103;28;20427;-85
2023/04/25 07:47:10;;;;;;;8.13;1.37;;;10.70;99.90;;;;;;5077821;28;20813;-86
2023/04/25 07:49:37;;;;;;;4.23;1.20;;;10.50;99.90;;;;;;5078319;28;20444;-86
2023/04/25 07:52:13;;;;;;;9.60;1.03;;;10.60;99.90;;;;;;5075878;28;20439;-84
2023/04/25 07:54:51;;;;;;;4.80;1.37;;;10.50;99.90;;;;;;5078132;28;20430;-85
2023/04/25 07:57:16;;;;;;;5.80;1.47;;;10.30;1.00;;;;;;5078154;28;20423;-84
2023/04/25 07:59:43;;;;;;;8.60;1.60;;;10.20;1.00;;;;;;5096192;28;20488;-83
2023/04/25 08:02:13;;;;;;;8.10;1.43;;;10.40;1.00;;;;;;5096141;28;20466;-85
2023/04/25 08:04:46;;;;;;;6.37;1.10;;;10.30;1.00;;;;;;5057210;28;20471;-87
2023/04/25 08:07:12;;;;;;;5.10;0.93;;;10.20;1.00;;;;;;5054330;28;20430;-86
2023/04/25 08:09:40;;;;;;;9.23;1.30;;;10.30;1.00;;;;;;5055656;28;20424;-86
2023/04/25 08:12:11;;;;;;;6.87;1.70;;;10.50;99.90;;;;;;5054508;28;20925;-84
2023/04/25 08:14:40;;;;;;;5.30;0.30;;;10.70;99.90;;;;;;5055651;28;20179;-86
2023/04/25 08:17:12;;;;;;;5.13;1.27;;;11.10;99.90;;;;;;5053814;28;20512;-86
2023/04/25 08:19:39;;;;;;;7.30;0.93;;;11.60;99.90;;;;;;5053167;28;20416;-86
2023/04/25 08:22:17;;;;;;;6.27;1.60;;;11.80;99.90;;;;;;5037477;28;20523;-86
2023/04/25 08:24:46;;;;;;;4.73;1.50;;;12.30;99.90;;;;;;5053972;28;20417;-83
2023/04/25 08:27:12;;;;;;;7.83;1.43;;;13.20;87.10;;;;;;4993044;28;20438;-83
2023/04/25 08:29:38;;;;;;;6.23;0.67;;;13.80;17.40;;;;;;5035243;28;20764;-83
2023/04/25 08:32:04;;;;;;;3.80;1.13;;;13.80;1.00;;;;;;5035212;28;20426;-82
2023/04/25 08:34:29;;;;;;;4.70;0.93;;;13.50;1.00;;;;;;5035070;28;20618;-84
2023/04/25 08:36:55;;;;;;;6.70;0.80;;;13.20;1.00;;;;;;5033709;28;20269;-83
2023/04/25 08:39:24;;;;;;;7.23;0.80;;;13.00;1.00;;;;;;5034083;28;20181;-83
2023/04/25 08:41:53;;;;;;;3.33;1.13;;;12.60;1.00;;;;;;5035257;28;20234;-83
2023/04/25 08:44:20;;;;;;;6.00;0.90;;;12.30;1.00;;;;;;5050436;28;20507;-83
2023/04/25 08:46:49;;;;;;;6.77;1.30;;;12.20;1.00;;;;;;5050510;28;20182;-82
2023/04/25 08:49:17;;;;;;;8.30;1.47;;;12.20;1.00;;;;;;5035263;28;20898;-85
2023/04/25 08:51:47;;;;;;;5.07;0.83;;;12.10;28.40;;;;;;5049899;28;20948;-83
2023/04/25 08:54:14;;;;;;;4.83;0.80;;;12.20;28.70;;;;;;5035012;28;20829;-86
2023/04/25 08:56:47;;;;;;;5.23;0.77;;;12.30;13.90;;;;;;5050355;28;20425;-85
2023/04/25 08:59:13;;;;;;;4.67;0.63;;;12.20;8.90;;;;;;5050444;28;20433;-84
2023/04/25 09:01:39;;;;;;;4.13;1.10;;;12.00;18.40;;;;;;5050283;28;20503;-84
2023/04/25 09:04:05;;;;;;;5.13;0.40;;;12.50;16.70;;;;;;5052933;28;20219;-84
2023/04/25 09:06:31;;;;;;;4.37;0.30;;;13.20;14.40;;;;;;5073985;28;20905;-87
2023/04/25 09:09:08;;;;;;;6.17;1.57;;;13.60;1.00;;;;;;5056644;28;20657;-84
2023/04/25 09:11:38;;;;;;;5.30;1.70;;;13.30;1.00;;;;;;5056844;28;20424;-84
2023/04/25 09:14:21;;;;;;;4.90;0.50;;;13.00;1.00;;;;;;5056604;28;20423;-83
2023/04/25 09:16:55;;;;;;;3.90;0.33;;;12.70;1.00;;;;;;5056728;28;20497;-82
2023/04/25 09:19:36;;;;;;;3.30;0.30;;;12.50;1.00;;;;;;5056692;28;20410;-85
2023/04/25 09:22:04;;;;;;;6.97;0.90;;;11.80;13.00;;;;;;5056315;28;20975;-85
2023/04/25 09:24:41;;;;;;;4.37;0.60;;;11.40;72.80;;;;;;5056469;28;20412;-84
2023/04/25 09:27:19;;;;;;;3.80;0.80;;;11.20;64.30;;;;;;5056447;28;20439;-86
2023/04/25 09:29:46;;;;;;;2.40;0.67;;;11.30;71.30;;;;;;5056149;28;20773;-83
2023/04/25 09:32:23;;;;;;;2.00;0.37;;;11.10;52.30;;;;;;5055601;28;20579;-82
2023/04/25 09:34:51;;;;;;;3.07;1.17;;;10.80;45.70;;;;;;5056274;28;20427;-85
2023/04/25 09:37:31;;;;;;;2.10;0.63;;;10.70;62.60;;;;;;5056014;28;20436;-87
2023/04/25 09:40:02;;;;;;;5.67;0.77;;;10.40;99.90;;;;;;5056073;28;20782;-83
2023/04/25 09:42:31;;;;;;;4.57;0.47;;;10.50;99.90;;;;;;5074111;28;20527;-83
2023/04/25 09:45:07;;;;;;;1.70;0.33;;;10.40;99.90;;;;;;5039716;28;20422;-85
2023/04/25 09:47:38;;;;;;;4.53;0.77;;;10.30;99.90;;;;;;5055899;28;20420;-82
2023/04/25 09:50:18;;;;;;;6.43;0.97;;;10.40;99.90;;;;;;5073570;28;20411;-85
2023/04/25 09:52:46;;;;;;;5.83;0.43;;;11.00;99.90;;;;;;5056493;28;20425;-85
2023/04/25 09:55:11;;;;;;;10.03;1.33;;;11.80;99.90;;;;;;5056192;28;20749;-86
2023/04/25 09:57:39;;;;;;;5.93;0.67;;;12.50;87.30;;;;;;5055774;28;20408;-88
2023/04/25 10:00:10;;;;;;;6.80;1.27;;;13.30;45.80;;;;;;5073514;28;20235;-85
2023/04/25 10:02:39;;;;;;;3.10;0.50;;;13.30;49.10;;;;;;5049419;28;20515;-82
2023/04/25 10:05:07;;;;;;;2.90;0.90;;;13.00;99.90;;;;;;5063391;28;20495;-87
2023/04/25 10:07:35;;;;;;;3.87;0.40;;;13.10;99.90;;;;;;5093778;28;20447;-87
2023/04/25 10:10:03;;;;;;;4.27;1.30;;;13.00;99.90;;;;;;5093860;28;20414;-84
2023/04/25 10:12:30;;;;;;;1.30;0.73;;;12.80;99.90;;;;;;5093742;28;20409;-84
2023/04/25 10:14:58;;;;;;;2.37;0.50;;;12.80;99.90;;;;;;5093621;28;20416;-88
2023/04/25 10:17:24;;;;;;;2.07;0.33;;;12.60;53.80;;;;;;5072949;28;20433;-84
2023/04/25 10:19:50;;;;;;;4.03;0.33;;;12.80;99.90;;;;;;5092132;28;20402;-82
2023/04/25 10:22:38;;;;;;;3.73;0.93;;;13.40;99.90;;;;;;5074328;28;20468;-82
2023/04/25 10:25:04;;;;;;;3.60;0.83;;;14.30;99.90;;;;;;5074143;28;20870;-82
2023/04/25 10:27:31;;;;;;;4.40;0.77;;;14.80;99.90;;;;;;5074213;28;20446;-85
2023/04/25 10:30:04;;;;;;;2.40;0.27;;;15.10;99.90;;;;;;5074333;28;20418;-85
2023/04/25 10:32:32;;;;;;;2.73;0.80;;;16.10;99.90;;;;;;5074379;28;20468;-85
2023/04/25 10:34:57;;;;;;;2.47;0.30;;;17.00;99.90;;;;;;5092086;28;20414;-85
2023/04/25 10:37:24;;;;;;;2.13;0.80;;;17.40;99.90;;;;;;5092430;28;20409;-88
2023/04/25 10:39:49;;;;;;;2.67;0.67;;;17.70;98.10;;;;;;5074303;28;20203;-84
2023/04/25 10:42:15;;;;;;;4.10;0.40;;;16.80;1.00;;;;;;5091804;28;20503;-84
2023/04/25 10:45:00;;;;;;;8.20;0.67;;;16.00;1.00;;;;;;5073901;28;20177;-83
2023/04/25 10:47:35;;;;;;;2.63;0.77;;;15.50;1.00;;;;;;5073745;28;20177;-84
2023/04/25 10:50:06;;;;;;;2.07;0.40;;;16.10;1.00;;;;;;5073782;28;20426;-84
2023/04/25 10:52:33;;;;;;;5.20;0.67;;;16.80;1.00;;;;;;5091878;28;20777;-85
2023/04/25 10:55:00;;;;;;;3.10;0.80;;;17.50;1.00;;;;;;5073891;28;20927;-87
2023/04/25 10:57:29;;;;;;;5.77;0.83;;;18.20;1.00;;;;;;5091940;28;20411;-85
2023/04/25 11:00:10;;;;;;;6.87;0.97;;;17.70;1.00;;;;;;5092051;28;20465;-87
2023/04/25 11:02:46;;;;;;;3.97;0.50;;;16.90;1.00;;;;;;5091928;28;20464;-85
2023/04/25 11:05:32;;;;;;;3.40;0.87;;;15.80;1.00;;;;;;5073492;28;20481;-83
2023/04/25 11:07:58;;;;;;;4.83;1.10;;;15.60;1.00;;;;;;5091718;28;20428;-84
2023/04/25 11:10:27;;;;;;;2.17;0.47;;;15.10;1.00;;;;;;5091957;28;20418;-83
2023/04/25 11:12:53;;;;;;;5.20;1.00;;;15.50;1.00;;;;;;5073829;28;20452;-83
2023/04/25 11:15:18;;;;;;;2.63;0.47;;;16.10;1.00;;;;;;5091652;28;20456;-83
2023/04/25 11:17:46;;;;;;;1.80;0.60;;;16.50;1.00;;;;;;5091821;28;20254;-83
2023/04/25 11:20:14;;;;;;;1.93;0.47;;;16.20;1.00;;;;;;5073365;28;20181;-84
2023/04/25 11:22:40;;;;;;;4.20;1.13;;;15.40;1.00;;;;;;5091866;28;20537;-84
2023/04/25 11:25:07;;;;;;;4.83;0.63;;;14.80;1.00;;;;;;5073095;28;20476;-84
2023/04/25 11:27:33;;;;;;;3.77;0.77;;;14.50;1.00;;;;;;5091814;28;20438;-89
2023/04/25 11:29:58;;;;;;;3.83;0.60;;;14.40;1.00;;;;;;5091637;28;20412;-81
2023/04/25 11:32:24;;;;;;;3.50;0.47;;;14.70;1.00;;;;;;5091656;28;20190;-82
2023/04/25 11:34:49;;;;;;;3.33;0.60;;;15.40;1.00;;;;;;5091319;28;20178;-82
2023/04/25 11:37:15;;;;;;;5.80;1.13;;;16.10;1.00;;;;;;5091652;28;20253;-82
2023/04/25 11:39:46;;;;;;;1.53;0.33;;;16.90;1.00;;;;;;5091679;28;20728;-82
2023/04/25 11:42:11;;;;;;;4.50;0.50;;;17.40;1.00;;;;;;5091567;28;20206;-81
2023/04/25 11:44:39;;;;;;;2.13;0.87;;;18.30;1.00;;;;;;5091365;28;20421;-83
2023/04/25 11:47:05;;;;;;;2.60;1.00;;;19.00;1.00;;;;;;5091522;28;20181;-81
2023/04/25 11:49:32;;;;;;;2.27;0.87;;;19.30;1.00;;;;;;5091272;28;20409;-80
2023/04/25 11:51:57;;;;;;;3.10;0.70;;;19.20;1.00;;;;;;5091528;28;20255;-80
2023/04/25 11:54:23;;;;;;;2.40;0.50;;;18.60;1.00;;;;;;5092783;28;20478;-81
2023/04/25 11:56:48;;;;;;;1.70;0.50;;;17.50;1.00;;;;;;5095263;28;20671;-80
2023/04/25 11:59:16;;;;;;;2.33;0.33;;;15.60;1.00;;;;;;5095199;28;20169;-80
2023/04/25 12:01:48;;;;;;;2.57;0.40;;;14.40;1.00;;;;;;5095095;28;20240;-83
2023/04/25 12:04:22;;;;;;;2.07;0.37;;;13.60;1.00;;;;;;5053680;28;20480;-82
2023/04/25 12:06:50;;;;;;;1.57;0.27;;;13.20;1.00;;;;;;5094634;28;20427;-82
2023/04/25 12:09:18;;;;;;;0.83;0.30;;;13.10;1.00;;;;;;5094882;28;20418;-83
2023/04/25 12:11:48;;;;;;;1.27;0.60;;;13.00;1.00;;;;;;5094842;28;20415;-83
2023/04/25 12:14:23;;;;;;;3.43;0.33;;;12.70;1.00;;;;;;5094916;28;20778;-83
2023/04/25 12:16:50;;;;;;;2.77;0.80;;;12.60;1.00;;;;;;5094837;28;20469;-83
2023/04/25 12:19:17;;;;;;;1.07;0.40;;;12.60;1.00;;;;;;5094738;28;20446;-82
2023/04/25 12:21:43;;;;;;;5.03;0.20;;;12.90;1.00;;;;;;5094245;28;20968;-82
2023/04/25 12:24:13;;;;;;;1.50;0.70;;;13.80;1.00;;;;;;5094792;28;20510;-82
2023/04/25 12:26:58;;;;;;;1.73;0.60;;;15.00;1.00;;;;;;5094559;28;20418;-81
2023/04/25 12:29:26;;;;;;;3.80;0.80;;;16.00;1.00;;;;;;5094691;28;20402;-81
2023/04/25 12:31:53;;;;;;;6.00;0.77;;;17.00;1.00;;;;;;5094572;28;20416;-81
2023/04/25 12:34:19;;;;;;;0.87;0.30;;;17.60;1.00;;;;;;5094401;28;20933;-83
2023/04/25 12:36:45;;;;;;;1.90;0.40;;;18.00;1.00;;;;;;5093105;28;20446;-81
2023/04/25 12:39:27;;;;;;;2.33;0.60;;;18.40;1.00;;;;;;5076428;28;20414;-83
2023/04/25 12:41:53;;;;;;;3.00;0.87;;;18.70;1.00;;;;;;5094393;28;20480;-81
2023/04/25 12:44:20;;;;;;;1.43;0.50;;;19.00;1.00;;;;;;5094355;28;20911;-81
2023/04/25 12:46:46;;;;;;;2.47;0.53;;;18.30;1.00;;;;;;5094065;28;20436;-82
2023/04/25 12:49:11;;;;;;;3.43;1.00;;;17.60;1.00;;;;;;5094174;28;20428;-81
2023/04/25 12:51:37;;;;;;;2.13;0.67;;;16.70;1.00;;;;;;5093912;28;20422;-82
2023/04/25 12:54:04;;;;;;;4.07;0.50;;;16.30;1.00;;;;;;5094170;28;20174;-82
2023/04/25 12:56:31;;;;;;;1.60;0.30;;;15.90;1.00;;;;;;5093987;28;20181;-81